sensor_id;sensor_type;location;lat;lon;timestamp;P1;durP1;ratioP1;P2;durP2;ratioP2
71294;SDS011;59080;31.686;73.862;2022-08-11T00:01:52;38.25;;;30.73;;
71294;SDS011;59080;31.686;73.862;2022-08-11T00:04:23;43.08;;;33.10;;
71294;SDS011;59080;31.686;73.862;2022-08-11T00:09:21;42.75;;;31.27;;
71294;SDS011;59080;31.686;73.862;2022-08-11T00:11:58;43.38;;;31.00;;
71294;SDS011;59080;31.686;73.862;2022-08-11T00:14:29;43.58;;;31.05;;
71294;SDS011;59080;31.686;73.862;2022-08-11T00:19:33;43.53;;;30.48;;
71294;SDS011;59080;31.686;73.862;2022-08-11T00:22:04;42.03;;;30.30;;
71294;SDS011;59080;31.686;73.862;2022-08-11T00:24:34;38.47;;;29.88;;
71294;SDS011;59080;31.686;73.862;2022-08-11T00:27:04;43.40;;;30.15;;
71294;SDS011;59080;31.686;73.862;2022-08-11T00:29:33;45.55;;;30.45;;
71294;SDS011;59080;31.686;73.862;2022-08-11T00:32:02;39.58;;;29.85;;
71294;SDS011;59080;31.686;73.862;2022-08-11T00:34:35;45.00;;;30.10;;
71294;SDS011;59080;31.686;73.862;2022-08-11T00:37:04;43.58;;;30.27;;
71294;SDS011;59080;31.686;73.862;2022-08-11T00:39:45;38.63;;;30.40;;
71294;SDS011;59080;31.686;73.862;2022-08-11T00:45:23;43.88;;;29.95;;
71294;SDS011;59080;31.686;73.862;2022-08-11T00:48:02;37.33;;;28.95;;
71294;SDS011;59080;31.686;73.862;2022-08-11T01:08:13;44.72;;;30.77;;
71294;SDS011;59080;31.686;73.862;2022-08-11T01:16:49;38.20;;;29.73;;
71294;SDS011;59080;31.686;73.862;2022-08-11T01:20:02;43.35;;;30.08;;
71294;SDS011;59080;31.686;73.862;2022-08-11T01:31:24;44.92;;;29.88;;
71294;SDS011;59080;31.686;73.862;2022-08-11T01:39:57;38.53;;;31.27;;
71294;SDS011;59080;31.686;73.862;2022-08-11T01:46:00;40.60;;;30.65;;
71294;SDS011;59080;31.686;73.862;2022-08-11T01:48:48;34.53;;;28.90;;
71294;SDS011;59080;31.686;73.862;2022-08-11T01:54:32;37.47;;;29.60;;
71294;SDS011;59080;31.686;73.862;2022-08-11T02:00:12;42.78;;;30.48;;
71294;SDS011;59080;31.686;73.862;2022-08-11T02:03:08;39.25;;;30.48;;
71294;SDS011;59080;31.686;73.862;2022-08-11T02:11:42;42.28;;;31.25;;
71294;SDS011;59080;31.686;73.862;2022-08-11T02:19:25;41.95;;;29.65;;
71294;SDS011;59080;31.686;73.862;2022-08-11T02:28:36;38.10;;;28.10;;
71294;SDS011;59080;31.686;73.862;2022-08-11T02:34:31;39.25;;;28.38;;
71294;SDS011;59080;31.686;73.862;2022-08-11T02:42:56;37.58;;;26.73;;
71294;SDS011;59080;31.686;73.862;2022-08-11T02:45:50;37.03;;;26.33;;
71294;SDS011;59080;31.686;73.862;2022-08-11T02:51:36;36.92;;;27.05;;
71294;SDS011;59080;31.686;73.862;2022-08-11T02:54:30;38.22;;;26.48;;
71294;SDS011;59080;31.686;73.862;2022-08-11T02:57:12;38.75;;;27.25;;
71294;SDS011;59080;31.686;73.862;2022-08-11T03:07:31;34.40;;;25.55;;
71294;SDS011;59080;31.686;73.862;2022-08-11T03:19:08;38.28;;;25.08;;
71294;SDS011;59080;31.686;73.862;2022-08-11T03:24:55;32.33;;;25.90;;
71294;SDS011;59080;31.686;73.862;2022-08-11T03:28:13;33.88;;;26.23;;
71294;SDS011;59080;31.686;73.862;2022-08-11T03:30:56;36.38;;;24.02;;
71294;SDS011;59080;31.686;73.862;2022-08-11T03:33:46;33.15;;;24.27;;
71294;SDS011;59080;31.686;73.862;2022-08-11T03:42:41;34.90;;;25.45;;
71294;SDS011;59080;31.686;73.862;2022-08-11T03:47:59;40.60;;;27.02;;
71294;SDS011;59080;31.686;73.862;2022-08-11T04:22:15;36.90;;;20.67;;
71294;SDS011;59080;31.686;73.862;2022-08-11T04:36:40;33.22;;;19.92;;
71294;SDS011;59080;31.686;73.862;2022-08-11T04:51:42;27.15;;;18.05;;
71294;SDS011;59080;31.686;73.862;2022-08-11T05:12:52;24.15;;;15.75;;
71294;SDS011;59080;31.686;73.862;2022-08-11T05:16:01;26.02;;;16.63;;
71294;SDS011;59080;31.686;73.862;2022-08-11T05:18:58;24.15;;;15.85;;
71294;SDS011;59080;31.686;73.862;2022-08-11T05:21:54;24.20;;;15.45;;
71294;SDS011;59080;31.686;73.862;2022-08-11T05:24:43;22.83;;;15.88;;
71294;SDS011;59080;31.686;73.862;2022-08-11T05:27:36;26.45;;;16.63;;
71294;SDS011;59080;31.686;73.862;2022-08-11T05:30:34;28.77;;;16.98;;
71294;SDS011;59080;31.686;73.862;2022-08-11T05:33:29;31.52;;;16.50;;
71294;SDS011;59080;31.686;73.862;2022-08-11T05:36:46;32.45;;;16.25;;
71294;SDS011;59080;31.686;73.862;2022-08-11T05:39:21;32.30;;;15.18;;
71294;SDS011;59080;31.686;73.862;2022-08-11T05:42:11;28.00;;;14.77;;
71294;SDS011;59080;31.686;73.862;2022-08-11T05:45:03;30.02;;;14.95;;
71294;SDS011;59080;31.686;73.862;2022-08-11T05:48:01;24.08;;;12.57;;
71294;SDS011;59080;31.686;73.862;2022-08-11T05:50:51;25.45;;;13.65;;
71294;SDS011;59080;31.686;73.862;2022-08-11T05:53:45;22.60;;;11.30;;
71294;SDS011;59080;31.686;73.862;2022-08-11T05:56:57;26.35;;;11.88;;
71294;SDS011;59080;31.686;73.862;2022-08-11T05:59:27;36.75;;;10.95;;
71294;SDS011;59080;31.686;73.862;2022-08-11T06:02:01;19.23;;;10.05;;
71294;SDS011;59080;31.686;73.862;2022-08-11T06:04:31;23.30;;;9.98;;
71294;SDS011;59080;31.686;73.862;2022-08-11T06:07:01;16.60;;;10.05;;
71294;SDS011;59080;31.686;73.862;2022-08-11T06:12:20;18.02;;;9.52;;
71294;SDS011;59080;31.686;73.862;2022-08-11T06:14:54;23.00;;;9.10;;
71294;SDS011;59080;31.686;73.862;2022-08-11T06:17:27;18.98;;;9.35;;
71294;SDS011;59080;31.686;73.862;2022-08-11T06:20:05;15.95;;;8.80;;
71294;SDS011;59080;31.686;73.862;2022-08-11T06:22:42;23.85;;;9.48;;
71294;SDS011;59080;31.686;73.862;2022-08-11T06:25:21;21.40;;;7.80;;
71294;SDS011;59080;31.686;73.862;2022-08-11T06:27:57;15.48;;;8.13;;
71294;SDS011;59080;31.686;73.862;2022-08-11T06:30:59;17.58;;;8.20;;
71294;SDS011;59080;31.686;73.862;2022-08-11T06:33:28;18.33;;;7.78;;
71294;SDS011;59080;31.686;73.862;2022-08-11T06:36:03;33.30;;;9.95;;
71294;SDS011;59080;31.686;73.862;2022-08-11T06:41:25;15.88;;;8.90;;
71294;SDS011;59080;31.686;73.862;2022-08-11T06:46:44;18.83;;;8.90;;
71294;SDS011;59080;31.686;73.862;2022-08-11T06:49:20;15.18;;;8.82;;
71294;SDS011;59080;31.686;73.862;2022-08-11T06:52:16;16.52;;;8.95;;
71294;SDS011;59080;31.686;73.862;2022-08-11T06:54:49;20.48;;;9.15;;
71294;SDS011;59080;31.686;73.862;2022-08-11T06:57:35;15.95;;;9.00;;
71294;SDS011;59080;31.686;73.862;2022-08-11T07:00:23;25.58;;;8.85;;
71294;SDS011;59080;31.686;73.862;2022-08-11T07:02:57;18.20;;;9.27;;
71294;SDS011;59080;31.686;73.862;2022-08-11T07:14:51;24.52;;;9.95;;
71294;SDS011;59080;31.686;73.862;2022-08-11T07:20:35;18.40;;;9.68;;
71294;SDS011;59080;31.686;73.862;2022-08-11T07:23:23;18.65;;;9.32;;
71294;SDS011;59080;31.686;73.862;2022-08-11T07:26:12;20.60;;;10.02;;
71294;SDS011;59080;31.686;73.862;2022-08-11T07:28:58;15.90;;;9.35;;
71294;SDS011;59080;31.686;73.862;2022-08-11T07:31:29;15.55;;;8.60;;
71294;SDS011;59080;31.686;73.862;2022-08-11T07:36:41;18.70;;;9.85;;
71294;SDS011;59080;31.686;73.862;2022-08-11T07:39:23;20.38;;;10.55;;
71294;SDS011;59080;31.686;73.862;2022-08-11T07:41:59;23.27;;;10.48;;
71294;SDS011;59080;31.686;73.862;2022-08-11T07:44:36;15.80;;;10.32;;
71294;SDS011;59080;31.686;73.862;2022-08-11T07:47:24;19.80;;;10.55;;
71294;SDS011;59080;31.686;73.862;2022-08-11T07:50:11;22.60;;;10.55;;
71294;SDS011;59080;31.686;73.862;2022-08-11T07:52:58;14.07;;;9.43;;
71294;SDS011;59080;31.686;73.862;2022-08-11T07:55:28;18.75;;;9.45;;
71294;SDS011;59080;31.686;73.862;2022-08-11T07:57:57;20.08;;;8.93;;
71294;SDS011;59080;31.686;73.862;2022-08-11T08:00:45;19.42;;;8.93;;
71294;SDS011;59080;31.686;73.862;2022-08-11T08:03:42;10.95;;;8.63;;
71294;SDS011;59080;31.686;73.862;2022-08-11T08:06:30;12.50;;;8.48;;
71294;SDS011;59080;31.686;73.862;2022-08-11T08:09:19;14.90;;;7.50;;
71294;SDS011;59080;31.686;73.862;2022-08-11T08:12:07;16.63;;;8.50;;
71294;SDS011;59080;31.686;73.862;2022-08-11T08:14:54;15.90;;;9.25;;
71294;SDS011;59080;31.686;73.862;2022-08-11T08:17:43;14.75;;;9.00;;
71294;SDS011;59080;31.686;73.862;2022-08-11T08:20:25;17.95;;;9.32;;
71294;SDS011;59080;31.686;73.862;2022-08-11T08:22:57;19.35;;;9.95;;
71294;SDS011;59080;31.686;73.862;2022-08-11T08:25:27;10.60;;;7.13;;
71294;SDS011;59080;31.686;73.862;2022-08-11T08:27:58;16.88;;;7.88;;
71294;SDS011;59080;31.686;73.862;2022-08-11T08:30:29;13.32;;;6.88;;
71294;SDS011;59080;31.686;73.862;2022-08-11T08:33:13;18.23;;;7.10;;
71294;SDS011;59080;31.686;73.862;2022-08-11T08:35:47;14.60;;;7.18;;
71294;SDS011;59080;31.686;73.862;2022-08-11T08:38:18;12.38;;;6.53;;
71294;SDS011;59080;31.686;73.862;2022-08-11T08:40:45;9.15;;;5.80;;
71294;SDS011;59080;31.686;73.862;2022-08-11T08:43:18;11.75;;;5.93;;
71294;SDS011;59080;31.686;73.862;2022-08-11T08:45:47;12.07;;;6.10;;
71294;SDS011;59080;31.686;73.862;2022-08-11T08:48:16;19.48;;;6.40;;
71294;SDS011;59080;31.686;73.862;2022-08-11T08:50:49;11.98;;;6.45;;
71294;SDS011;59080;31.686;73.862;2022-08-11T08:53:38;13.70;;;5.82;;
71294;SDS011;59080;31.686;73.862;2022-08-11T08:56:10;22.13;;;9.25;;
71294;SDS011;59080;31.686;73.862;2022-08-11T08:58:38;20.52;;;8.40;;
71294;SDS011;59080;31.686;73.862;2022-08-11T09:01:08;24.40;;;8.35;;
71294;SDS011;59080;31.686;73.862;2022-08-11T09:03:38;18.52;;;8.38;;
71294;SDS011;59080;31.686;73.862;2022-08-11T09:06:05;23.75;;;7.75;;
71294;SDS011;59080;31.686;73.862;2022-08-11T09:08:34;21.67;;;7.18;;
71294;SDS011;59080;31.686;73.862;2022-08-11T09:11:08;21.75;;;6.75;;
71294;SDS011;59080;31.686;73.862;2022-08-11T09:13:56;19.23;;;7.05;;
71294;SDS011;59080;31.686;73.862;2022-08-11T09:16:25;19.27;;;6.10;;
71294;SDS011;59080;31.686;73.862;2022-08-11T09:18:53;16.02;;;5.82;;
71294;SDS011;59080;31.686;73.862;2022-08-11T09:21:21;17.83;;;5.88;;
71294;SDS011;59080;31.686;73.862;2022-08-11T09:23:49;11.82;;;5.43;;
71294;SDS011;59080;31.686;73.862;2022-08-11T09:26:36;14.95;;;4.80;;
71294;SDS011;59080;31.686;73.862;2022-08-11T09:29:27;11.52;;;5.10;;
71294;SDS011;59080;31.686;73.862;2022-08-11T09:31:57;15.80;;;4.63;;
71294;SDS011;59080;31.686;73.862;2022-08-11T09:34:25;12.18;;;4.22;;
71294;SDS011;59080;31.686;73.862;2022-08-11T09:36:54;12.07;;;4.35;;
71294;SDS011;59080;31.686;73.862;2022-08-11T09:39:43;10.25;;;3.97;;
71294;SDS011;59080;31.686;73.862;2022-08-11T09:42:30;14.25;;;4.07;;
71294;SDS011;59080;31.686;73.862;2022-08-11T09:45:17;9.40;;;3.60;;
71294;SDS011;59080;31.686;73.862;2022-08-11T09:47:45;11.88;;;4.15;;
71294;SDS011;59080;31.686;73.862;2022-08-11T09:50:14;7.57;;;2.80;;
71294;SDS011;59080;31.686;73.862;2022-08-11T09:52:43;7.38;;;3.05;;
71294;SDS011;59080;31.686;73.862;2022-08-11T09:57:45;6.65;;;2.75;;
71294;SDS011;59080;31.686;73.862;2022-08-11T10:00:33;12.02;;;2.90;;
71294;SDS011;59080;31.686;73.862;2022-08-11T10:03:07;10.57;;;3.35;;
71294;SDS011;59080;31.686;73.862;2022-08-11T10:05:36;7.57;;;3.55;;
71294;SDS011;59080;31.686;73.862;2022-08-11T10:08:27;8.98;;;3.10;;
71294;SDS011;59080;31.686;73.862;2022-08-11T10:10:58;8.00;;;4.10;;
71294;SDS011;59080;31.686;73.862;2022-08-11T10:13:31;11.88;;;3.45;;
71294;SDS011;59080;31.686;73.862;2022-08-11T10:16:22;10.57;;;3.70;;
71294;SDS011;59080;31.686;73.862;2022-08-11T10:18:53;10.23;;;3.78;;
71294;SDS011;59080;31.686;73.862;2022-08-11T10:21:26;7.20;;;3.65;;
71294;SDS011;59080;31.686;73.862;2022-08-11T10:23:59;6.75;;;3.47;;
71294;SDS011;59080;31.686;73.862;2022-08-11T10:26:47;9.05;;;3.72;;
71294;SDS011;59080;31.686;73.862;2022-08-11T10:29:32;9.63;;;3.95;;
71294;SDS011;59080;31.686;73.862;2022-08-11T10:32:25;12.93;;;4.03;;
71294;SDS011;59080;31.686;73.862;2022-08-11T10:35:16;10.20;;;3.63;;
71294;SDS011;59080;31.686;73.862;2022-08-11T10:37:46;12.93;;;4.25;;
71294;SDS011;59080;31.686;73.862;2022-08-11T10:40:16;9.30;;;4.38;;
71294;SDS011;59080;31.686;73.862;2022-08-11T10:42:53;13.77;;;5.00;;
71294;SDS011;59080;31.686;73.862;2022-08-11T10:45:32;14.82;;;5.88;;
71294;SDS011;59080;31.686;73.862;2022-08-11T10:48:21;10.18;;;6.60;;
71294;SDS011;59080;31.686;73.862;2022-08-11T10:50:51;12.68;;;7.03;;
71294;SDS011;59080;31.686;73.862;2022-08-11T10:53:43;16.15;;;7.72;;
71294;SDS011;59080;31.686;73.862;2022-08-11T10:56:34;14.00;;;8.23;;
71294;SDS011;59080;31.686;73.862;2022-08-11T10:59:21;15.15;;;7.95;;
71294;SDS011;59080;31.686;73.862;2022-08-11T11:01:52;17.98;;;8.32;;
71294;SDS011;59080;31.686;73.862;2022-08-11T11:04:27;16.52;;;7.75;;
71294;SDS011;59080;31.686;73.862;2022-08-11T11:07:16;18.13;;;8.10;;
71294;SDS011;59080;31.686;73.862;2022-08-11T11:09:54;15.15;;;7.63;;
71294;SDS011;59080;31.686;73.862;2022-08-11T11:15:20;20.10;;;8.82;;
71294;SDS011;59080;31.686;73.862;2022-08-11T11:18:10;16.95;;;8.32;;
71294;SDS011;59080;31.686;73.862;2022-08-11T11:20:55;18.50;;;8.27;;
71294;SDS011;59080;31.686;73.862;2022-08-11T11:23:33;20.08;;;7.97;;
71294;SDS011;59080;31.686;73.862;2022-08-11T11:26:11;15.32;;;7.57;;
71294;SDS011;59080;31.686;73.862;2022-08-11T11:34:36;16.80;;;7.60;;
71294;SDS011;59080;31.686;73.862;2022-08-11T11:37:49;15.80;;;7.05;;
71294;SDS011;59080;31.686;73.862;2022-08-11T11:40:19;13.73;;;6.22;;
71294;SDS011;59080;31.686;73.862;2022-08-11T11:42:50;13.68;;;6.40;;
71294;SDS011;59080;31.686;73.862;2022-08-11T11:45:23;8.88;;;6.10;;
71294;SDS011;59080;31.686;73.862;2022-08-11T11:47:53;11.70;;;6.00;;
71294;SDS011;59080;31.686;73.862;2022-08-11T11:50:26;12.00;;;6.30;;
71294;SDS011;59080;31.686;73.862;2022-08-11T11:52:57;15.18;;;6.68;;
71294;SDS011;59080;31.686;73.862;2022-08-11T11:55:28;12.68;;;6.95;;
71294;SDS011;59080;31.686;73.862;2022-08-11T11:57:59;14.40;;;6.72;;
71294;SDS011;59080;31.686;73.862;2022-08-11T12:00:48;12.23;;;6.45;;
71294;SDS011;59080;31.686;73.862;2022-08-11T12:03:36;16.30;;;7.32;;
71294;SDS011;59080;31.686;73.862;2022-08-11T12:06:06;13.25;;;6.72;;
71294;SDS011;59080;31.686;73.862;2022-08-11T12:08:37;13.23;;;6.70;;
71294;SDS011;59080;31.686;73.862;2022-08-11T12:11:10;13.27;;;6.75;;
71294;SDS011;59080;31.686;73.862;2022-08-11T12:13:59;16.80;;;7.05;;
71294;SDS011;59080;31.686;73.862;2022-08-11T12:16:29;14.80;;;6.63;;
71294;SDS011;59080;31.686;73.862;2022-08-11T12:18:59;14.88;;;7.93;;
71294;SDS011;59080;31.686;73.862;2022-08-11T12:21:32;15.57;;;8.15;;
71294;SDS011;59080;31.686;73.862;2022-08-11T12:24:03;16.55;;;7.78;;
71294;SDS011;59080;31.686;73.862;2022-08-11T12:26:50;14.25;;;8.18;;
71294;SDS011;59080;31.686;73.862;2022-08-11T12:29:38;23.70;;;8.65;;
71294;SDS011;59080;31.686;73.862;2022-08-11T12:32:06;18.63;;;9.07;;
71294;SDS011;59080;31.686;73.862;2022-08-11T12:34:35;20.15;;;8.60;;
71294;SDS011;59080;31.686;73.862;2022-08-11T12:37:03;17.88;;;9.25;;
71294;SDS011;59080;31.686;73.862;2022-08-11T12:39:38;19.75;;;9.73;;
71294;SDS011;59080;31.686;73.862;2022-08-11T12:42:33;18.35;;;8.95;;
71294;SDS011;59080;31.686;73.862;2022-08-11T12:45:23;21.10;;;9.63;;
71294;SDS011;59080;31.686;73.862;2022-08-11T12:48:04;14.65;;;8.25;;
71294;SDS011;59080;31.686;73.862;2022-08-11T12:51:05;15.60;;;8.60;;
71294;SDS011;59080;31.686;73.862;2022-08-11T12:54:07;15.07;;;8.23;;
71294;SDS011;59080;31.686;73.862;2022-08-11T12:56:43;15.25;;;8.32;;
71294;SDS011;59080;31.686;73.862;2022-08-11T12:59:39;18.27;;;8.43;;
71294;SDS011;59080;31.686;73.862;2022-08-11T13:02:26;21.48;;;8.38;;
71294;SDS011;59080;31.686;73.862;2022-08-11T13:05:14;20.05;;;8.68;;
71294;SDS011;59080;31.686;73.862;2022-08-11T13:07:43;18.30;;;7.40;;
71294;SDS011;59080;31.686;73.862;2022-08-11T13:10:15;18.60;;;7.88;;
71294;SDS011;59080;31.686;73.862;2022-08-11T13:13:07;12.95;;;6.38;;
71294;SDS011;59080;31.686;73.862;2022-08-11T13:15:38;11.90;;;6.25;;
71294;SDS011;59080;31.686;73.862;2022-08-11T13:18:08;13.52;;;6.13;;
71294;SDS011;59080;31.686;73.862;2022-08-11T13:20:42;11.43;;;5.43;;
71294;SDS011;59080;31.686;73.862;2022-08-11T13:23:14;10.88;;;6.18;;
71294;SDS011;59080;31.686;73.862;2022-08-11T13:25:42;15.93;;;5.97;;
71294;SDS011;59080;31.686;73.862;2022-08-11T13:28:11;14.48;;;6.38;;
71294;SDS011;59080;31.686;73.862;2022-08-11T13:30:39;13.57;;;6.88;;
71294;SDS011;59080;31.686;73.862;2022-08-11T13:33:26;18.38;;;7.32;;
71294;SDS011;59080;31.686;73.862;2022-08-11T13:35:57;15.13;;;8.27;;
71294;SDS011;59080;31.686;73.862;2022-08-11T13:38:27;17.95;;;8.57;;
71294;SDS011;59080;31.686;73.862;2022-08-11T13:40:58;16.40;;;8.98;;
71294;SDS011;59080;31.686;73.862;2022-08-11T13:43:26;17.35;;;8.68;;
71294;SDS011;59080;31.686;73.862;2022-08-11T13:45:55;13.40;;;7.65;;
71294;SDS011;59080;31.686;73.862;2022-08-11T13:48:44;16.55;;;8.68;;
71294;SDS011;59080;31.686;73.862;2022-08-11T13:51:20;18.50;;;9.30;;
71294;SDS011;59080;31.686;73.862;2022-08-11T13:56:34;17.30;;;10.00;;
71294;SDS011;59080;31.686;73.862;2022-08-11T13:59:09;19.77;;;10.23;;
71294;SDS011;59080;31.686;73.862;2022-08-11T14:01:52;22.25;;;10.73;;
71294;SDS011;59080;31.686;73.862;2022-08-11T14:04:25;15.70;;;9.73;;
71294;SDS011;59080;31.686;73.862;2022-08-11T14:07:02;20.20;;;9.82;;
71294;SDS011;59080;31.686;73.862;2022-08-11T14:09:36;16.77;;;8.82;;
71294;SDS011;59080;31.686;73.862;2022-08-11T14:12:09;16.33;;;8.23;;
71294;SDS011;59080;31.686;73.862;2022-08-11T14:15:22;12.88;;;7.05;;
71294;SDS011;59080;31.686;73.862;2022-08-11T14:20:56;9.10;;;5.45;;
71294;SDS011;59080;31.686;73.862;2022-08-11T14:23:52;12.25;;;5.07;;
71294;SDS011;59080;31.686;73.862;2022-08-11T14:26:29;11.07;;;4.90;;
71294;SDS011;59080;31.686;73.862;2022-08-11T14:29:06;8.25;;;4.78;;
71294;SDS011;59080;31.686;73.862;2022-08-11T14:34:35;7.78;;;3.90;;
71294;SDS011;59080;31.686;73.862;2022-08-11T14:37:08;9.48;;;3.85;;
71294;SDS011;59080;31.686;73.862;2022-08-11T14:43:03;12.38;;;4.03;;
71294;SDS011;59080;31.686;73.862;2022-08-11T14:45:50;9.73;;;3.50;;
71294;SDS011;59080;31.686;73.862;2022-08-11T14:48:36;7.97;;;3.53;;
71294;SDS011;59080;31.686;73.862;2022-08-11T14:51:04;9.40;;;3.63;;
71294;SDS011;59080;31.686;73.862;2022-08-11T14:53:33;9.35;;;3.50;;
71294;SDS011;59080;31.686;73.862;2022-08-11T14:56:01;7.75;;;3.13;;
71294;SDS011;59080;31.686;73.862;2022-08-11T14:58:47;6.53;;;3.13;;
71294;SDS011;59080;31.686;73.862;2022-08-11T15:01:16;9.85;;;3.45;;
71294;SDS011;59080;31.686;73.862;2022-08-11T15:04:03;12.32;;;3.45;;
71294;SDS011;59080;31.686;73.862;2022-08-11T15:06:31;9.70;;;3.15;;
71294;SDS011;59080;31.686;73.862;2022-08-11T15:09:00;6.03;;;3.05;;
71294;SDS011;59080;31.686;73.862;2022-08-11T15:11:29;8.63;;;2.63;;
71294;SDS011;59080;31.686;73.862;2022-08-11T15:14:17;6.70;;;2.58;;
71294;SDS011;59080;31.686;73.862;2022-08-11T15:17:05;4.63;;;2.13;;
71294;SDS011;59080;31.686;73.862;2022-08-11T15:19:35;9.00;;;2.63;;
71294;SDS011;59080;31.686;73.862;2022-08-11T15:22:25;9.23;;;2.60;;
71294;SDS011;59080;31.686;73.862;2022-08-11T15:25:12;8.43;;;2.53;;
71294;SDS011;59080;31.686;73.862;2022-08-11T15:27:41;4.88;;;2.08;;
71294;SDS011;59080;31.686;73.862;2022-08-11T15:30:32;3.00;;;1.77;;
71294;SDS011;59080;31.686;73.862;2022-08-11T15:33:19;6.35;;;1.83;;
71294;SDS011;59080;31.686;73.862;2022-08-11T15:36:09;4.15;;;1.95;;
71294;SDS011;59080;31.686;73.862;2022-08-11T15:39:05;3.85;;;1.90;;
71294;SDS011;59080;31.686;73.862;2022-08-11T15:42:12;3.83;;;2.20;;
71294;SDS011;59080;31.686;73.862;2022-08-11T15:45:02;5.38;;;2.10;;
71294;SDS011;59080;31.686;73.862;2022-08-11T15:47:53;6.88;;;2.20;;
71294;SDS011;59080;31.686;73.862;2022-08-11T15:50:24;2.42;;;1.92;;
71294;SDS011;59080;31.686;73.862;2022-08-11T15:52:59;5.68;;;2.00;;
71294;SDS011;59080;31.686;73.862;2022-08-11T15:55:35;4.18;;;2.20;;
71294;SDS011;59080;31.686;73.862;2022-08-11T15:58:07;4.63;;;2.33;;
71294;SDS011;59080;31.686;73.862;2022-08-11T16:00:57;4.43;;;2.22;;
71294;SDS011;59080;31.686;73.862;2022-08-11T16:03:50;2.97;;;2.30;;
71294;SDS011;59080;31.686;73.862;2022-08-11T16:06:44;6.82;;;2.47;;
71294;SDS011;59080;31.686;73.862;2022-08-11T16:12:13;6.47;;;2.50;;
71294;SDS011;59080;31.686;73.862;2022-08-11T16:14:49;3.42;;;2.20;;
71294;SDS011;59080;31.686;73.862;2022-08-11T16:17:45;3.05;;;2.15;;
71294;SDS011;59080;31.686;73.862;2022-08-11T16:20:20;4.47;;;2.67;;
71294;SDS011;59080;31.686;73.862;2022-08-11T16:22:55;5.60;;;2.72;;
71294;SDS011;59080;31.686;73.862;2022-08-11T16:25:32;4.30;;;2.28;;
71294;SDS011;59080;31.686;73.862;2022-08-11T16:28:02;5.93;;;2.63;;
71294;SDS011;59080;31.686;73.862;2022-08-11T16:30:34;4.93;;;2.50;;
71294;SDS011;59080;31.686;73.862;2022-08-11T16:33:05;4.05;;;2.75;;
71294;SDS011;59080;31.686;73.862;2022-08-11T16:35:36;9.60;;;3.40;;
71294;SDS011;59080;31.686;73.862;2022-08-11T16:38:24;10.45;;;4.82;;
71294;SDS011;59080;31.686;73.862;2022-08-11T16:41:05;7.72;;;4.88;;
71294;SDS011;59080;31.686;73.862;2022-08-11T16:44:08;9.27;;;5.30;;
71294;SDS011;59080;31.686;73.862;2022-08-11T16:46:56;12.05;;;5.80;;
71294;SDS011;59080;31.686;73.862;2022-08-11T16:49:58;9.80;;;6.70;;
71294;SDS011;59080;31.686;73.862;2022-08-11T16:52:21;13.77;;;7.13;;
71294;SDS011;59080;31.686;73.862;2022-08-11T16:54:49;11.23;;;8.10;;
71294;SDS011;59080;31.686;73.862;2022-08-11T16:57:22;13.68;;;9.18;;
71294;SDS011;59080;31.686;73.862;2022-08-11T17:00:11;16.58;;;9.98;;
71294;SDS011;59080;31.686;73.862;2022-08-11T17:02:43;20.35;;;10.75;;
71294;SDS011;59080;31.686;73.862;2022-08-11T17:05:37;18.08;;;11.25;;
71294;SDS011;59080;31.686;73.862;2022-08-11T17:08:34;12.73;;;10.63;;
71294;SDS011;59080;31.686;73.862;2022-08-11T17:11:31;19.20;;;12.70;;
71294;SDS011;59080;31.686;73.862;2022-08-11T17:17:28;16.70;;;10.77;;
71294;SDS011;59080;31.686;73.862;2022-08-11T17:20:00;14.55;;;10.18;;
71294;SDS011;59080;31.686;73.862;2022-08-11T17:22:35;15.02;;;10.13;;
71294;SDS011;59080;31.686;73.862;2022-08-11T17:25:24;11.45;;;9.20;;
71294;SDS011;59080;31.686;73.862;2022-08-11T17:27:55;11.98;;;9.50;;
71294;SDS011;59080;31.686;73.862;2022-08-11T17:30:25;14.90;;;10.07;;
71294;SDS011;59080;31.686;73.862;2022-08-11T17:33:15;12.50;;;9.02;;
71294;SDS011;59080;31.686;73.862;2022-08-11T17:36:03;10.88;;;8.93;;
71294;SDS011;59080;31.686;73.862;2022-08-11T17:38:31;15.30;;;9.40;;
71294;SDS011;59080;31.686;73.862;2022-08-11T17:41:01;11.88;;;8.45;;
71294;SDS011;59080;31.686;73.862;2022-08-11T17:43:49;14.63;;;9.02;;
71294;SDS011;59080;31.686;73.862;2022-08-11T17:46:36;10.18;;;8.25;;
71294;SDS011;59080;31.686;73.862;2022-08-11T17:49:25;11.85;;;8.07;;
71294;SDS011;59080;31.686;73.862;2022-08-11T17:51:56;14.55;;;8.40;;
71294;SDS011;59080;31.686;73.862;2022-08-11T17:54:43;12.88;;;7.93;;
71294;SDS011;59080;31.686;73.862;2022-08-11T17:57:31;12.50;;;7.70;;
71294;SDS011;59080;31.686;73.862;2022-08-11T18:00:17;12.45;;;8.32;;
71294;SDS011;59080;31.686;73.862;2022-08-11T18:02:46;11.73;;;7.15;;
71294;SDS011;59080;31.686;73.862;2022-08-11T18:05:36;10.40;;;7.05;;
71294;SDS011;59080;31.686;73.862;2022-08-11T18:08:09;16.48;;;7.32;;
71294;SDS011;59080;31.686;73.862;2022-08-11T18:10:57;11.55;;;7.38;;
71294;SDS011;59080;31.686;73.862;2022-08-11T18:13:45;12.07;;;7.05;;
71294;SDS011;59080;31.686;73.862;2022-08-11T18:16:33;9.88;;;6.68;;
71294;SDS011;59080;31.686;73.862;2022-08-11T18:19:19;11.35;;;6.97;;
71294;SDS011;59080;31.686;73.862;2022-08-11T18:22:12;13.95;;;7.78;;
71294;SDS011;59080;31.686;73.862;2022-08-11T18:25:06;13.73;;;7.50;;
71294;SDS011;59080;31.686;73.862;2022-08-11T18:28:00;13.70;;;7.78;;
71294;SDS011;59080;31.686;73.862;2022-08-11T18:30:52;19.08;;;8.05;;
71294;SDS011;59080;31.686;73.862;2022-08-11T18:33:51;15.15;;;7.75;;
71294;SDS011;59080;31.686;73.862;2022-08-11T18:36:50;15.35;;;7.28;;
71294;SDS011;59080;31.686;73.862;2022-08-11T18:39:44;13.15;;;7.00;;
71294;SDS011;59080;31.686;73.862;2022-08-11T18:42:34;14.05;;;7.43;;
71294;SDS011;59080;31.686;73.862;2022-08-11T18:45:23;14.35;;;7.28;;
71294;SDS011;59080;31.686;73.862;2022-08-11T18:48:13;15.07;;;7.35;;
71294;SDS011;59080;31.686;73.862;2022-08-11T18:51:02;17.02;;;6.95;;
71294;SDS011;59080;31.686;73.862;2022-08-11T18:53:54;14.73;;;6.78;;
71294;SDS011;59080;31.686;73.862;2022-08-11T18:56:45;9.82;;;6.35;;
71294;SDS011;59080;31.686;73.862;2022-08-11T18:59:34;12.60;;;6.57;;
71294;SDS011;59080;31.686;73.862;2022-08-11T19:02:23;12.57;;;6.70;;
71294;SDS011;59080;31.686;73.862;2022-08-11T19:05:10;11.38;;;7.00;;
71294;SDS011;59080;31.686;73.862;2022-08-11T19:07:59;14.07;;;7.45;;
71294;SDS011;59080;31.686;73.862;2022-08-11T19:10:47;11.93;;;6.65;;
71294;SDS011;59080;31.686;73.862;2022-08-11T19:13:34;15.65;;;8.07;;
71294;SDS011;59080;31.686;73.862;2022-08-11T19:16:23;15.85;;;7.95;;
71294;SDS011;59080;31.686;73.862;2022-08-11T19:19:10;19.05;;;9.55;;
71294;SDS011;59080;31.686;73.862;2022-08-11T19:22:02;17.13;;;8.35;;
71294;SDS011;59080;31.686;73.862;2022-08-11T19:24:51;17.38;;;9.02;;
71294;SDS011;59080;31.686;73.862;2022-08-11T19:27:39;19.42;;;9.65;;
71294;SDS011;59080;31.686;73.862;2022-08-11T19:30:28;19.00;;;10.13;;
71294;SDS011;59080;31.686;73.862;2022-08-11T19:33:15;23.85;;;10.73;;
71294;SDS011;59080;31.686;73.862;2022-08-11T19:36:03;24.30;;;10.57;;
71294;SDS011;59080;31.686;73.862;2022-08-11T19:38:51;22.73;;;10.75;;
71294;SDS011;59080;31.686;73.862;2022-08-11T19:41:38;22.55;;;10.40;;